createdAt,value
2022-09-01T00:00:34.764Z,6.50
2022-09-01T00:03:36.990Z,6.53
2022-09-01T00:06:40.655Z,6.90
2022-09-01T00:09:42.437Z,5.93
2022-09-01T00:12:47.780Z,5.77
2022-09-01T00:15:49.460Z,5.13
2022-09-01T00:18:53.686Z,12.83
2022-09-01T00:21:56.204Z,5.43
2022-09-01T00:24:57.909Z,6.93
2022-09-01T00:28:03.717Z,5.70
2022-09-01T00:31:07.759Z,6.37
2022-09-01T00:34:09.443Z,5.27
2022-09-01T00:37:11.218Z,7.20
2022-09-01T00:40:15.358Z,5.73
2022-09-01T00:43:37.440Z,5.97
2022-09-01T00:46:49.555Z,6.40
2022-09-01T00:49:52.196Z,8.03
2022-09-01T00:52:55.458Z,7.30
2022-09-01T00:55:57.391Z,5.87
2022-09-01T00:59:00.011Z,6.43
2022-09-01T01:02:01.653Z,5.80
2022-09-01T01:05:06.231Z,5.27
2022-09-01T01:08:11.663Z,5.10
2022-09-01T01:11:18.192Z,5.60
2022-09-01T01:14:20.091Z,4.90
2022-09-01T01:17:23.299Z,5.13
2022-09-01T01:20:48.433Z,4.77
2022-09-01T01:24:01.152Z,4.73
2022-09-01T01:27:04.786Z,4.63
2022-09-01T01:30:11.033Z,4.87
2022-09-01T01:33:15.247Z,4.67
2022-09-01T01:36:29.095Z,4.53
2022-09-01T01:39:30.808Z,4.73
2022-09-01T01:42:35.453Z,6.30
2022-09-01T01:45:37.107Z,5.50
2022-09-01T01:48:41.546Z,4.50
2022-09-01T01:51:45.205Z,4.27
2022-09-01T01:54:47.463Z,4.70
2022-09-01T01:57:49.964Z,8.27
2022-09-01T02:00:54.161Z,5.27
2022-09-01T02:03:56.920Z,4.83
2022-09-01T02:07:01.889Z,7.87
2022-09-01T02:10:03.970Z,4.10
2022-09-01T02:13:07.559Z,15.40
2022-09-01T02:16:13.536Z,5.10
2022-09-01T02:19:19.481Z,4.90
2022-09-01T02:22:21.665Z,4.30
2022-09-01T02:25:23.324Z,4.93
2022-09-01T02:28:24.937Z,4.60
2022-09-01T02:31:27.821Z,4.63
2022-09-01T02:34:29.511Z,5.23
2022-09-01T02:37:31.164Z,4.83
2022-09-01T02:40:33.619Z,5.13
2022-09-01T02:43:35.500Z,4.20
2022-09-01T02:46:44.240Z,4.73
2022-09-01T02:49:46.569Z,4.43
2022-09-01T02:52:52.191Z,4.80
2022-09-01T02:55:53.944Z,4.83
2022-09-01T02:58:55.666Z,4.37
2022-09-01T03:01:57.468Z,4.70
2022-09-01T03:04:59.146Z,4.90
2022-09-01T03:08:04.283Z,7.30
2022-09-01T03:11:13.159Z,4.33
2022-09-01T03:14:17.171Z,4.80
2022-09-01T03:17:18.868Z,4.83
2022-09-01T03:20:21.649Z,4.03
2022-09-01T03:23:25.277Z,4.10
2022-09-01T03:26:27.073Z,8.07
2022-09-01T03:29:28.782Z,8.30
2022-09-01T03:32:30.445Z,4.33
2022-09-01T03:35:32.275Z,4.50
2022-09-01T03:38:34.177Z,4.40
2022-09-01T03:41:36.947Z,5.90
2022-09-01T03:44:40.226Z,4.40
2022-09-01T03:47:45.171Z,6.63
2022-09-01T03:50:47.158Z,4.83
2022-09-01T03:53:49.703Z,10.23
2022-09-01T03:56:51.385Z,22.90
2022-09-01T03:59:54.199Z,18.57
2022-09-01T04:02:59.121Z,29.03
2022-09-01T04:06:02.327Z,26.03
2022-09-01T04:09:03.941Z,25.20
2022-09-01T04:12:08.931Z,26.37
2022-09-01T04:15:12.086Z,20.13
2022-09-01T04:18:20.472Z,17.43
2022-09-01T04:21:22.530Z,14.43
2022-09-01T04:24:27.961Z,9.00
2022-09-01T04:27:29.630Z,6.70
2022-09-01T04:30:33.685Z,5.20
2022-09-01T04:33:39.949Z,7.90
2022-09-01T04:36:44.726Z,5.13
2022-09-01T04:39:56.581Z,5.33
2022-09-01T04:42:58.632Z,6.97
2022-09-01T04:46:01.020Z,4.93
2022-09-01T04:49:08.061Z,6.77
2022-09-01T04:52:14.929Z,4.73
2022-09-01T04:55:19.474Z,5.23
2022-09-01T04:58:22.038Z,7.13
2022-09-01T05:01:26.108Z,7.37
2022-09-01T05:04:33.742Z,4.70
2022-09-01T05:07:36.798Z,4.83
2022-09-01T05:10:42.013Z,6.03
2022-09-01T05:13:48.224Z,5.13
2022-09-01T05:16:51.155Z,8.40
2022-09-01T05:19:54.358Z,9.83
2022-09-01T05:22:57.581Z,5.50
2022-09-01T05:26:01.293Z,6.60
2022-09-01T05:29:10.453Z,4.70
2022-09-01T05:32:12.552Z,4.13
2022-09-01T05:35:14.607Z,5.90
2022-09-01T05:38:16.299Z,4.60
2022-09-01T05:41:19.446Z,5.83
2022-09-01T05:44:22.892Z,5.07
2022-09-01T05:47:26.153Z,4.60
2022-09-01T05:50:28.179Z,3.93
2022-09-01T05:53:31.034Z,4.37
2022-09-01T05:56:32.759Z,4.47
2022-09-01T05:59:34.503Z,4.37
2022-09-01T06:02:37.604Z,6.27
2022-09-01T06:05:39.882Z,4.30
2022-09-01T06:08:46.764Z,4.33
2022-09-01T06:11:49.106Z,5.13
2022-09-01T06:14:55.789Z,5.43
2022-09-01T06:17:57.950Z,4.03
2022-09-01T06:20:59.736Z,3.73
2022-09-01T06:24:01.329Z,4.47
2022-09-01T06:27:03.035Z,6.70
2022-09-01T06:30:14.672Z,4.90
2022-09-01T06:33:16.712Z,4.53
2022-09-01T06:36:18.776Z,7.00
2022-09-01T06:39:20.425Z,4.03
2022-09-01T06:42:23.549Z,5.10
2022-09-01T06:45:28.027Z,3.90
2022-09-01T06:48:30.822Z,4.63
2022-09-01T06:51:33.996Z,6.10
2022-09-01T06:54:36.394Z,4.57
2022-09-01T07:01:15.523Z,3.93
2022-09-01T07:04:21.294Z,4.17
2022-09-01T07:14:16.436Z,5.67
2022-09-01T07:17:22.974Z,4.50
2022-09-01T07:21:02.717Z,4.17
2022-09-01T07:24:10.906Z,5.30
2022-09-01T07:27:13.044Z,4.07
2022-09-01T07:30:15.147Z,5.67
2022-09-01T07:43:34.068Z,4.67
2022-09-01T07:46:37.355Z,4.07
2022-09-01T07:50:11.372Z,4.50
2022-09-01T07:53:01.882Z,5.80
2022-09-01T07:56:09.521Z,4.07
2022-09-01T07:59:14.852Z,3.97
2022-09-01T08:02:18.062Z,5.33
2022-09-01T08:05:26.254Z,4.83
2022-09-01T08:08:29.319Z,5.10
2022-09-01T08:15:12.684Z,4.20
2022-09-01T08:18:15.434Z,5.07
2022-09-01T08:21:18.510Z,4.40
2022-09-01T08:24:20.225Z,4.33
2022-09-01T08:27:21.942Z,4.37
2022-09-01T08:30:23.548Z,4.10
2022-09-01T08:33:26.071Z,5.05
2022-09-01T08:36:27.741Z,4.73
2022-09-01T08:39:29.382Z,4.60
2022-09-01T08:42:45.021Z,5.13
2022-09-01T08:45:55.876Z,5.40
2022-09-01T08:52:35.150Z,6.73
2022-09-01T08:55:44.870Z,4.57
2022-09-01T08:58:47.047Z,8.40
2022-09-01T09:01:55.268Z,4.70
2022-09-01T09:04:56.877Z,7.10
2022-09-01T09:08:10.673Z,4.90
2022-09-01T09:11:41.999Z,7.27
2022-09-01T09:15:16.399Z,5.33
2022-09-01T09:18:55.585Z,4.20
2022-09-01T09:22:00.707Z,5.47
2022-09-01T09:25:12.520Z,6.07
2022-09-01T09:28:14.133Z,7.10
2022-09-01T09:31:32.286Z,5.20
2022-09-01T09:34:41.934Z,6.00
2022-09-01T09:37:43.729Z,4.70
2022-09-01T09:41:25.632Z,5.13
2022-09-01T09:44:32.775Z,6.47
2022-09-01T09:47:44.527Z,5.50
2022-09-01T09:50:46.571Z,5.50
2022-09-01T09:53:49.082Z,5.50
2022-09-01T09:57:22.148Z,4.63
2022-09-01T10:00:34.193Z,5.50
2022-09-01T10:03:48.978Z,5.30
2022-09-01T10:06:53.757Z,6.10
2022-09-01T10:09:58.016Z,5.57
2022-09-01T10:13:00.623Z,9.17
2022-09-01T10:16:32.168Z,5.33
2022-09-01T10:19:35.946Z,5.90
2022-09-01T10:22:39.537Z,4.70
2022-09-01T10:25:47.573Z,5.23
2022-09-01T10:28:55.183Z,6.57
2022-09-01T10:32:28.017Z,5.37
2022-09-01T10:35:23.919Z,5.30
2022-09-01T10:38:28.230Z,5.70
2022-09-01T10:42:00.165Z,5.97
2022-09-01T10:45:02.923Z,5.20
2022-09-01T10:48:30.569Z,5.67
2022-09-01T10:51:51.515Z,5.20
2022-09-01T10:55:00.257Z,5.80
2022-09-01T11:02:26.905Z,5.10
2022-09-01T11:06:14.415Z,7.30
2022-09-01T11:09:29.979Z,5.30
2022-09-01T11:12:52.480Z,5.07
2022-09-01T11:15:54.623Z,4.60
2022-09-01T11:19:34.953Z,13.93
2022-09-01T11:22:59.091Z,5.00
2022-09-01T11:26:20.905Z,5.43
2022-09-01T11:29:52.179Z,4.97
2022-09-01T11:33:02.505Z,4.23
2022-09-01T11:36:12.507Z,4.97
2022-09-01T11:39:14.072Z,4.60
2022-09-01T11:42:25.799Z,4.83
2022-09-01T11:45:32.931Z,4.90
2022-09-01T11:48:34.691Z,4.70
2022-09-01T11:51:47.556Z,4.70
2022-09-01T11:54:50.252Z,5.27
2022-09-01T11:57:51.859Z,5.33
2022-09-01T12:01:00.436Z,4.43
2022-09-01T12:04:26.508Z,4.70
2022-09-01T12:07:46.622Z,4.97
2022-09-01T12:10:48.514Z,4.83
2022-09-01T12:14:10.926Z,4.47
2022-09-01T12:17:20.465Z,4.90
2022-09-01T12:20:31.743Z,4.60
2022-09-01T12:23:40.390Z,8.03
2022-09-01T12:26:42.518Z,6.50
2022-09-01T12:29:45.079Z,6.40
2022-09-01T12:32:47.445Z,5.23
2022-09-01T12:35:49.130Z,5.03
2022-09-01T12:38:53.382Z,5.40
2022-09-01T12:42:09.813Z,4.90
2022-09-01T12:45:12.876Z,4.70
2022-09-01T12:48:36.704Z,4.70
2022-09-01T12:51:38.374Z,4.80
2022-09-01T12:54:40.134Z,4.93
2022-09-01T12:57:51.215Z,5.00
2022-09-01T13:01:03.141Z,4.70
2022-09-01T13:04:22.504Z,4.87
2022-09-01T13:07:24.147Z,6.63
2022-09-01T13:10:30.878Z,5.00
2022-09-01T13:13:39.611Z,5.10
2022-09-01T13:16:41.646Z,9.73
2022-09-01T13:19:43.299Z,6.07
2022-09-01T13:22:48.680Z,5.40
2022-09-01T13:25:51.089Z,4.97
2022-09-01T13:28:53.858Z,5.47
2022-09-01T13:35:21.773Z,4.93
2022-09-01T13:38:23.875Z,4.60
2022-09-01T13:41:26.068Z,5.17
2022-09-01T13:44:28.347Z,4.73
2022-09-01T13:47:30.635Z,4.70
2022-09-01T13:51:14.610Z,4.30
2022-09-01T13:53:54.523Z,4.63
2022-09-01T13:56:56.137Z,6.80
2022-09-01T13:59:58.637Z,4.03
2022-09-01T14:03:04.542Z,4.80
2022-09-01T14:06:06.521Z,4.60
2022-09-01T14:09:08.246Z,4.23
2022-09-01T14:12:09.858Z,4.63
2022-09-01T14:15:15.927Z,5.10
2022-09-01T14:18:19.155Z,4.93
2022-09-01T14:21:20.921Z,9.53
2022-09-01T14:24:22.614Z,7.00
2022-09-01T14:27:24.244Z,4.90
2022-09-01T14:30:31.437Z,5.27
2022-09-01T14:33:34.181Z,4.90
2022-09-01T14:36:35.851Z,5.17
2022-09-01T14:39:38.562Z,4.90
2022-09-01T14:42:41.317Z,5.60
2022-09-01T14:45:48.041Z,4.80
2022-09-01T14:48:50.675Z,6.50
2022-09-01T14:55:14.424Z,6.20
2022-09-01T14:58:16.972Z,5.40
2022-09-01T15:01:33.888Z,5.40
2022-09-01T15:04:36.193Z,4.90
2022-09-01T15:07:38.989Z,4.73
2022-09-01T15:10:40.894Z,5.10
2022-09-01T15:13:45.247Z,5.23
2022-09-01T15:16:47.106Z,4.63
2022-09-01T15:19:49.431Z,5.17
2022-09-01T15:22:51.543Z,4.77
2022-09-01T15:49:39.587Z,4.77
2022-09-01T16:07:03.907Z,5.00
2022-09-01T16:10:11.184Z,4.77
2022-09-01T16:13:12.925Z,5.43
2022-09-01T16:16:52.524Z,4.57
2022-09-01T16:20:07.880Z,4.80
2022-09-01T16:23:19.584Z,7.20
2022-09-01T16:26:23.110Z,4.40
2022-09-01T16:29:51.527Z,13.37
2022-09-01T16:32:53.554Z,4.50
2022-09-01T16:36:40.839Z,4.57
2022-09-01T16:39:48.185Z,7.53
2022-09-01T16:43:06.710Z,4.50
2022-09-01T16:46:21.327Z,5.30
2022-09-01T16:49:50.275Z,5.20
2022-09-01T16:53:28.294Z,4.30
2022-09-01T16:56:35.273Z,4.97
2022-09-01T16:59:55.641Z,4.27
2022-09-01T17:03:19.302Z,12.43
2022-09-01T17:06:26.801Z,4.90
2022-09-01T17:09:38.890Z,4.40
2022-09-01T17:12:51.764Z,4.40
2022-09-01T17:16:08.094Z,4.67
2022-09-01T17:19:16.231Z,4.10
2022-09-01T17:22:20.102Z,4.50
2022-09-01T17:25:33.373Z,4.33
2022-09-01T17:28:43.686Z,4.40
2022-09-01T17:32:04.135Z,3.97
2022-09-01T17:35:29.798Z,4.30
2022-09-01T17:38:54.138Z,4.47
2022-09-01T17:42:04.508Z,4.13
2022-09-01T17:45:29.222Z,7.03
2022-09-01T17:48:54.241Z,4.23
2022-09-01T17:52:15.120Z,4.23
2022-09-01T17:55:44.352Z,4.70
2022-09-01T17:59:03.901Z,4.67
2022-09-01T18:02:47.075Z,4.73
2022-09-01T18:05:54.901Z,4.53
2022-09-01T18:08:58.484Z,5.90
2022-09-01T18:12:09.619Z,4.80
2022-09-01T18:15:21.434Z,4.97
2022-09-01T18:18:30.001Z,4.90
2022-09-01T18:21:36.277Z,4.60
2022-09-01T18:24:52.022Z,4.20
2022-09-01T18:27:53.732Z,5.40
2022-09-01T18:31:34.780Z,4.33
2022-09-01T18:34:59.688Z,4.37
2022-09-01T18:38:13.135Z,4.80
2022-09-01T18:41:44.249Z,4.20
2022-09-01T18:45:07.522Z,6.53
2022-09-01T18:48:30.937Z,6.63
2022-09-01T18:51:45.886Z,4.90
2022-09-01T18:55:08.438Z,6.40
2022-09-01T18:58:26.390Z,4.50
2022-09-01T19:01:33.536Z,6.43
2022-09-01T19:04:42.268Z,5.33
2022-09-01T19:07:51.083Z,6.03
2022-09-01T19:11:12.613Z,4.80
2022-09-01T19:14:34.767Z,7.30
2022-09-01T19:18:07.108Z,6.00
2022-09-01T19:21:43.613Z,4.60
2022-09-01T19:25:17.462Z,5.50
2022-09-01T19:28:46.974Z,5.90
2022-09-01T19:31:53.120Z,4.93
2022-09-01T19:35:12.029Z,4.93
2022-09-01T19:38:27.362Z,6.63
2022-09-01T19:41:38.916Z,11.97
2022-09-01T19:45:07.524Z,4.80
2022-09-01T19:49:02.414Z,4.60
2022-09-01T19:52:15.691Z,4.40
2022-09-01T19:55:32.845Z,5.07
2022-09-01T19:59:00.161Z,4.60
2022-09-01T20:02:28.307Z,4.30
2022-09-01T20:05:42.066Z,8.23
2022-09-01T20:09:18.864Z,4.67
2022-09-01T20:12:42.973Z,10.17
2022-09-01T20:16:12.054Z,4.00
2022-09-01T20:19:45.254Z,3.70
2022-09-01T20:23:15.085Z,5.50
2022-09-01T20:26:50.901Z,11.33
2022-09-01T20:30:09.919Z,4.00
2022-09-01T20:33:24.685Z,6.00
2022-09-01T20:37:01.569Z,7.47
2022-09-01T20:40:24.556Z,7.07
2022-09-01T20:43:57.829Z,8.63
2022-09-01T20:47:00.216Z,4.37
2022-09-01T20:50:09.613Z,4.10
2022-09-01T20:53:54.450Z,5.00
2022-09-01T20:57:28.545Z,6.77
2022-09-01T21:00:36.864Z,4.53
2022-09-01T21:03:54.539Z,4.40
2022-09-01T21:07:31.711Z,5.93
2022-09-01T21:10:48.189Z,5.53
2022-09-01T21:14:16.057Z,4.70
2022-09-01T21:17:41.806Z,5.30
2022-09-01T21:21:07.940Z,4.87
2022-09-01T21:24:13.172Z,7.43
2022-09-01T21:27:23.448Z,4.53
2022-09-01T21:30:55.247Z,4.43
2022-09-01T21:33:56.897Z,4.30
2022-09-01T21:37:01.437Z,4.20
2022-09-01T21:40:04.525Z,4.80
2022-09-01T21:43:12.271Z,4.57
2022-09-01T21:46:15.522Z,4.50
2022-09-01T21:49:17.477Z,4.80
2022-09-01T21:52:21.769Z,4.63
2022-09-01T21:55:24.133Z,4.60
2022-09-01T21:58:25.773Z,4.63
2022-09-01T22:01:33.914Z,11.73
2022-09-01T22:04:36.990Z,4.20
2022-09-01T22:07:40.404Z,4.60
2022-09-01T22:10:49.032Z,7.60
2022-09-01T22:13:50.720Z,4.33
2022-09-01T22:16:52.437Z,4.47
2022-09-01T22:19:54.157Z,6.37
2022-09-01T22:22:57.849Z,5.80
2022-09-01T22:25:59.498Z,4.43
2022-09-01T22:29:04.298Z,4.40
2022-09-01T22:32:06.059Z,4.53
2022-09-01T22:35:10.170Z,4.47
2022-09-01T22:38:12.638Z,4.77
2022-09-01T22:41:18.913Z,5.23
2022-09-01T22:44:21.063Z,4.07
2022-09-01T22:47:22.742Z,4.80
2022-09-01T22:50:24.337Z,4.30
2022-09-01T22:53:25.979Z,4.37
2022-09-01T22:56:32.002Z,3.90
2022-09-01T22:59:33.795Z,4.87
2022-09-01T23:02:36.023Z,6.10
2022-09-01T23:05:37.714Z,6.03
2022-09-01T23:08:40.525Z,5.13
2022-09-01T23:11:42.473Z,4.27
2022-09-01T23:14:44.132Z,4.20
2022-09-01T23:17:45.827Z,4.53
2022-09-01T23:20:47.424Z,4.87
2022-09-01T23:23:55.181Z,5.20
2022-09-01T23:27:00.464Z,4.40
2022-09-01T23:30:03.024Z,4.83
2022-09-01T23:33:04.607Z,4.73
2022-09-01T23:36:08.892Z,4.20
2022-09-01T23:39:10.534Z,4.40
2022-09-01T23:42:12.252Z,4.57
2022-09-01T23:45:14.039Z,4.27
2022-09-01T23:48:16.506Z,5.80
2022-09-01T23:51:18.788Z,5.00
2022-09-01T23:54:21.093Z,4.40
2022-09-01T23:57:23.280Z,3.97
